Time;durP1;ratioP1;P1;durP2;ratioP2;P2;SDS_P1;SDS_P2;PMS_P1;PMS_P2;Temp;Humidity;BMP_temperature;BMP_pressure;BME280_temperature;BME280_humidity;BME280_pressure;Samples;Min_cycle;Max_cycle;Signal;HPM_P1;HPM_P2
2024/02/07 00:02:07;;;;;;;4.63;1.20;;;;;;;-145.69;53.87;52232.50;5133134;27;20666;-80
2024/02/07 00:04:33;;;;;;;4.83;1.57;;;;;;;-145.69;53.44;52252.28;5133736;27;20204;-80
2024/02/07 00:07:01;;;;;;;4.03;1.30;;;;;;;-145.69;53.08;52276.06;5137572;27;20212;-81
2024/02/07 00:09:28;;;;;;;4.67;1.73;;;;;;;-145.69;52.87;52280.00;5137872;27;20196;-81
2024/02/07 00:11:54;;;;;;;2.57;1.30;;;;;;;-145.69;52.69;52289.91;5137860;27;20207;-82
2024/02/07 00:14:21;;;;;;;3.10;1.20;;;;;;;-145.69;53.20;52264.16;5137735;27;20242;-81
2024/02/07 00:16:49;;;;;;;6.50;1.30;;;;;;;-145.69;52.79;52258.22;5138151;27;20304;-81
2024/02/07 00:19:17;;;;;;;4.53;1.47;;;;;;;-145.69;52.72;52266.16;5137034;27;20249;-81
2024/02/07 00:21:49;;;;;;;3.37;1.33;;;;;;;-145.69;52.52;52250.31;5137728;27;20201;-81
2024/02/07 00:24:21;;;;;;;4.70;1.80;;;;;;;-145.69;52.96;52244.38;5137640;27;20188;-81
2024/02/07 00:26:48;;;;;;;4.00;1.47;;;;;;;-145.69;53.09;52283.97;5136326;27;20286;-81
2024/02/07 00:29:14;;;;;;;4.57;1.87;;;;;;;-145.69;53.26;52282.00;5137292;27;20196;-81
2024/02/07 00:31:43;;;;;;;8.03;2.07;;;;;;;-145.69;53.28;52242.38;5137414;27;20279;-81
2024/02/07 00:34:11;;;;;;;2.83;1.70;;;;;;;-145.69;53.81;52268.13;5137313;27;20551;-81
2024/02/07 00:36:38;;;;;;;3.87;1.53;;;;;;;-145.69;54.33;52250.31;5136578;27;20281;-81
2024/02/07 00:39:05;;;;;;;5.50;1.87;;;;;;;-145.69;54.44;52262.19;5137291;27;20612;-81
2024/02/07 00:41:35;;;;;;;2.53;1.60;;;;;;;-145.69;54.94;52280.00;5137047;27;20197;-81
2024/02/07 00:44:02;;;;;;;3.60;2.23;;;;;;;-145.69;56.10;52293.88;5136497;27;20196;-81
2024/02/07 00:46:28;;;;;;;10.40;1.73;;;;;;;-145.69;56.38;52289.91;5137258;27;20196;-81
2024/02/07 00:48:55;;;;;;;6.80;2.27;;;;;;;-145.69;56.02;52297.84;5136834;27;20205;-81
2024/02/07 00:51:23;;;;;;;5.17;1.67;;;;;;;-145.69;56.49;52283.97;5136188;27;20260;-82
2024/02/07 00:53:49;;;;;;;3.00;2.00;;;;;;;-145.69;56.54;52276.06;5136248;27;20659;-82
2024/02/07 00:56:18;;;;;;;12.10;2.40;;;;;;;-145.69;56.98;52274.06;5136534;27;20225;-81
2024/02/07 00:58:44;;;;;;;7.00;1.93;;;;;;;-145.69;57.35;52289.91;5137215;27;20550;-81
2024/02/07 01:01:12;;;;;;;4.27;1.87;;;;;;;-145.69;57.58;52260.22;5136832;27;20201;-80
2024/02/07 01:03:38;;;;;;;4.47;1.80;;;;;;;-145.69;57.85;52287.94;5122285;27;20205;-81
2024/02/07 01:06:07;;;;;;;3.73;1.93;;;;;;;-145.69;56.85;52289.91;5116089;28;20197;-82
2024/02/07 01:08:35;;;;;;;4.57;1.93;;;;;;;-145.69;57.25;52260.22;5116229;28;20205;-81
2024/02/07 01:11:02;;;;;;;6.00;1.90;;;;;;;-145.69;57.34;52266.16;5116171;28;20288;-81
2024/02/07 01:13:29;;;;;;;4.57;2.13;;;;;;;-145.69;57.09;52311.69;5130875;27;20189;-81
2024/02/07 01:15:55;;;;;;;4.03;2.20;;;;;;;-145.69;57.83;52282.00;5136112;27;20220;-81
2024/02/07 01:18:22;;;;;;;7.37;2.03;;;;;;;-145.69;57.65;52276.06;5134920;27;20242;-82
2024/02/07 01:20:49;;;;;;;3.37;1.90;;;;;;;-145.69;58.08;52285.97;5136023;27;20193;-82
2024/02/07 01:23:18;;;;;;;5.93;2.00;;;;;;;-145.69;57.96;52266.16;5134660;27;20208;-82
2024/02/07 01:25:48;;;;;;;5.87;2.20;;;;;;;-145.69;57.13;52272.09;5136389;27;20280;-82
2024/02/07 01:28:15;;;;;;;5.07;2.30;;;;;;;-145.69;57.30;52282.00;5136232;27;20205;-82
2024/02/07 01:30:43;;;;;;;7.20;2.57;;;;;;;-145.69;56.40;52246.34;5136070;27;20283;-82
2024/02/07 01:33:12;;;;;;;6.73;2.40;;;;;;;-145.69;56.05;52283.97;5120737;27;20205;-82
2024/02/07 01:35:39;;;;;;;3.53;1.93;;;;;;;-145.69;56.36;52282.00;5132197;27;20308;-82
2024/02/07 01:38:07;;;;;;;8.87;2.30;;;;;;;-145.69;56.02;52262.19;5135953;27;20200;-82
2024/02/07 01:40:42;;;;;;;6.37;2.10;;;;;;;-145.69;56.07;52268.13;5136165;27;20239;-81
2024/02/07 01:43:11;;;;;;;7.13;2.10;;;;;;;-145.69;56.62;52260.22;5135928;27;20207;-81
2024/02/07 01:45:38;;;;;;;6.73;1.80;;;;;;;-145.69;56.72;52262.19;5136103;27;20200;-80
2024/02/07 01:48:05;;;;;;;6.40;2.27;;;;;;;-145.69;57.38;52274.06;5135923;27;20232;-80
2024/02/07 01:50:39;;;;;;;3.77;2.00;;;;;;;-145.69;57.70;52297.84;5135030;27;20197;-80
2024/02/07 01:53:11;;;;;;;5.33;1.73;;;;;;;-145.69;57.53;52266.16;5135990;27;20524;-80
2024/02/07 01:55:41;;;;;;;8.83;2.77;;;;;;;-145.69;57.24;52280.00;5135843;27;20299;-82
2024/02/07 01:58:11;;;;;;;7.17;2.10;;;;;;;-145.69;57.68;52272.09;5136054;27;20216;-82
2024/02/07 02:00:38;;;;;;;4.47;2.10;;;;;;;-145.69;58.03;52317.66;5135623;27;20675;-82
2024/02/07 02:03:07;;;;;;;7.27;2.20;;;;;;;-145.69;57.75;52297.84;5135518;27;20205;-82
2024/02/07 02:05:34;;;;;;;7.47;2.10;;;;;;;-145.69;57.75;52270.13;5134901;27;20197;-81
2024/02/07 02:08:02;;;;;;;4.90;2.37;;;;;;;-145.69;57.53;52268.13;5135543;27;20208;-81
2024/02/07 02:10:29;;;;;;;7.35;2.40;;;;;;;-145.69;58.38;52278.03;5134980;27;20797;-81
2024/02/07 02:12:56;;;;;;;6.40;1.93;;;;;;;-145.69;58.06;52282.00;5135273;27;20200;-81
2024/02/07 02:15:24;;;;;;;6.50;2.33;;;;;;;-145.69;57.99;52252.28;5134471;27;20738;-81
2024/02/07 02:17:52;;;;;;;4.83;2.47;;;;;;;-145.69;57.94;52260.22;5135395;27;20196;-81
2024/02/07 02:20:20;;;;;;;7.63;2.30;;;;;;;-145.69;58.30;52254.28;5135236;27;20560;-81
2024/02/07 02:23:11;;;;;;;4.43;1.93;;;;;;;-145.69;57.51;52266.16;5135046;27;20647;-81
2024/02/07 02:25:58;;;;;;;6.03;2.30;;;;;;;-145.69;58.00;52258.22;5134936;27;20204;-80
2024/02/07 02:28:35;;;;;;;5.30;2.10;;;;;;;-145.69;58.18;52278.03;5120740;27;20246;-81
2024/02/07 02:31:09;;;;;;;5.60;2.30;;;;;;;-145.69;58.07;52278.03;5134902;27;20201;-81
2024/02/07 02:33:39;;;;;;;6.70;2.40;;;;;;;-145.69;58.39;52274.06;5134677;27;20224;-81
2024/02/07 02:36:07;;;;;;;5.37;2.03;;;;;;;-145.69;58.03;52266.16;5134925;27;20304;-81
2024/02/07 02:38:36;;;;;;;4.80;2.20;;;;;;;-145.69;58.48;52272.09;5134644;27;20548;-81
2024/02/07 02:41:07;;;;;;;7.80;2.43;;;;;;;-145.69;57.72;52266.16;5135112;27;20208;-81
2024/02/07 02:43:33;;;;;;;3.77;2.10;;;;;;;-145.69;57.69;52297.84;5114476;28;20257;-81
2024/02/07 02:46:00;;;;;;;8.20;2.37;;;;;;;-145.69;57.65;52287.94;5113871;28;20254;-81
2024/02/07 02:48:28;;;;;;;5.50;2.50;;;;;;;-145.69;57.37;52246.34;5114258;28;20213;-81
2024/02/07 02:50:54;;;;;;;6.27;2.37;;;;;;;-145.69;57.57;52250.31;5121149;27;20200;-81
2024/02/07 02:53:21;;;;;;;7.70;2.50;;;;;;;-145.69;57.52;52272.09;5134119;27;20296;-81
2024/02/07 02:55:48;;;;;;;5.47;2.37;;;;;;;-145.69;57.63;52272.09;5134148;27;20751;-82
2024/02/07 02:58:18;;;;;;;5.27;1.90;;;;;;;-145.69;57.19;52270.13;5134141;27;20228;-81
2024/02/07 03:00:50;;;;;;;5.13;2.33;;;;;;;-145.69;56.93;52301.81;5134245;27;20192;-81
2024/02/07 03:03:17;;;;;;;6.40;2.40;;;;;;;-145.69;57.03;52272.09;5134532;27;20208;-81
2024/02/07 03:05:58;;;;;;;7.23;1.97;;;;;;;-145.69;56.36;52270.13;5131778;27;20209;-81
2024/02/07 03:08:29;;;;;;;3.90;2.23;;;;;;;-145.69;56.10;52258.22;5127067;27;20720;-80
2024/02/07 03:10:56;;;;;;;11.03;2.00;;;;;;;-145.69;55.43;52301.81;5134279;27;20241;-81
2024/02/07 03:13:25;;;;;;;4.80;2.20;;;;;;;-145.69;55.09;52256.25;5134033;27;20192;-81
2024/02/07 03:15:52;;;;;;;3.90;2.20;;;;;;;-145.69;55.60;52278.03;5134165;27;20246;-81
2024/02/07 03:18:28;;;;;;;9.00;2.60;;;;;;;-145.69;55.57;52254.28;5134406;27;20291;-81
2024/02/07 03:20:56;;;;;;;4.27;2.03;;;;;;;-145.69;55.74;52266.16;5133711;27;20245;-80
2024/02/07 03:23:24;;;;;;;3.33;1.73;;;;;;;-145.69;54.94;52278.03;5133327;27;20200;-81
2024/02/07 03:25:51;;;;;;;5.33;2.37;;;;;;;-145.69;55.74;52254.28;5134101;27;20614;-81
2024/02/07 03:28:21;;;;;;;5.87;1.97;;;;;;;-145.69;55.22;52250.31;5133763;27;20771;-80
2024/02/07 03:30:47;;;;;;;4.43;2.00;;;;;;;-145.69;54.97;52252.28;5134219;27;20254;-81
2024/02/07 03:33:14;;;;;;;6.13;1.93;;;;;;;-145.69;55.64;52283.97;5133461;27;20555;-80
2024/02/07 03:35:44;;;;;;;7.63;2.00;;;;;;;-145.69;55.62;52266.16;5133966;27;20592;-80
2024/02/07 03:38:11;;;;;;;5.85;2.25;;;;;;;-145.69;56.49;52301.81;5133526;27;20493;-81
2024/02/07 03:40:38;;;;;;;9.40;2.57;;;;;;;-145.69;55.87;52297.84;5133070;27;20207;-81
2024/02/07 03:43:06;;;;;;;5.57;1.90;;;;;;;-145.69;55.95;52232.50;5133825;27;20196;-80
2024/02/07 03:45:33;;;;;;;7.30;2.33;;;;;;;-145.69;55.63;52270.13;5133667;27;20204;-80
2024/02/07 03:48:00;;;;;;;3.80;1.87;;;;;;;-145.69;55.44;52262.19;5133701;27;20207;-81
2024/02/07 03:50:27;;;;;;;9.57;2.07;;;;;;;-145.69;55.82;52289.91;5133558;27;20200;-81
2024/02/07 03:52:55;;;;;;;2.87;1.93;;;;;;;-145.69;55.49;52272.09;5133314;27;20216;-80
2024/02/07 03:55:22;;;;;;;5.47;1.90;;;;;;;-145.69;55.26;52282.00;5133506;27;20224;-81
2024/02/07 03:57:49;;;;;;;10.27;2.37;;;;;;;-145.69;55.52;52246.34;5133404;27;20231;-80
2024/02/07 04:00:18;;;;;;;4.63;1.97;;;;;;;-145.69;55.80;52240.41;5133316;27;20593;-81
2024/02/07 04:02:46;;;;;;;5.90;1.83;;;;;;;-145.69;55.44;52293.88;5133338;27;20204;-81
2024/02/07 04:05:12;;;;;;;5.80;1.80;;;;;;;-145.69;55.31;52283.97;5133561;27;20192;-81
2024/02/07 04:07:39;;;;;;;2.83;1.80;;;;;;;-145.69;55.02;52258.22;5133475;28;20197;-80
2024/02/07 04:10:09;;;;;;;6.97;2.07;;;;;;;-145.69;55.52;52305.75;5133611;27;20221;-81
2024/02/07 05:16:29;;;;;;;4.80;1.73;;;;;;;-145.69;55.94;52293.88;5136375;27;20627;-81
2024/02/07 05:18:58;;;;;;;7.00;2.03;;;;;;;-145.69;56.06;52274.06;5136332;27;20200;-82
2024/02/07 05:21:25;;;;;;;4.93;2.13;;;;;;;-145.69;55.84;52246.34;5136754;27;20204;-82
2024/02/07 05:23:51;;;;;;;3.83;1.97;;;;;;;-145.69;55.72;52276.06;5136244;27;20189;-82
2024/02/07 05:26:18;;;;;;;5.30;2.17;;;;;;;-145.69;55.60;52272.09;5136342;27;20200;-82
2024/02/07 05:28:48;;;;;;;5.47;2.57;;;;;;;-145.69;54.79;52246.34;5136436;27;20206;-81
2024/02/07 05:31:17;;;;;;;4.53;1.60;;;;;;;-145.69;55.18;52240.41;5135999;27;20708;-81
2024/02/07 05:33:44;;;;;;;4.40;1.93;;;;;;;-145.69;54.58;52299.81;5135924;27;20601;-81
2024/02/07 05:36:11;;;;;;;4.73;1.90;;;;;;;-145.69;54.93;52272.09;5135979;27;20188;-82
2024/02/07 05:38:39;;;;;;;4.17;1.80;;;;;;;-145.69;54.76;52260.22;5136010;27;20201;-82
2024/02/07 05:41:05;;;;;;;3.30;2.00;;;;;;;-145.69;54.18;52242.38;5136191;27;20201;-82
2024/02/07 05:43:32;;;;;;;9.50;1.87;;;;;;;-145.69;54.14;52270.13;5135575;27;20193;-81
2024/02/07 05:45:58;;;;;;;3.77;2.10;;;;;;;-145.69;53.70;52282.00;5135828;27;20212;-81
2024/02/07 05:48:25;;;;;;;3.90;1.53;;;;;;;-145.69;54.36;52278.03;5135859;27;20674;-80
2024/02/07 05:50:51;;;;;;;4.00;1.93;;;;;;;-145.69;53.89;52230.50;5135650;27;20201;-81
2024/02/07 05:53:19;;;;;;;5.60;1.90;;;;;;;-145.69;53.85;52242.38;5135772;27;20200;-81
2024/02/07 05:55:46;;;;;;;5.93;2.03;;;;;;;-145.69;53.49;52222.59;5135716;27;20201;-81
2024/02/07 05:58:12;;;;;;;6.23;1.83;;;;;;;-145.69;53.23;52258.22;5135507;27;20228;-81
2024/02/07 06:00:40;;;;;;;6.40;2.00;;;;;;;-145.69;53.83;52252.28;5134818;27;20200;-81
2024/02/07 06:03:08;;;;;;;5.50;1.80;;;;;;;-145.69;53.76;52232.50;5134980;27;20228;-81
2024/02/07 06:05:34;;;;;;;3.20;1.80;;;;;;;-145.69;53.49;52248.34;5135647;27;20279;-81
2024/02/07 06:08:00;;;;;;;5.83;2.10;;;;;;;-145.69;53.93;52226.53;5135365;27;20200;-81
2024/02/07 06:10:29;;;;;;;3.27;1.70;;;;;;;-145.69;53.38;52270.13;5135644;27;20204;-81
2024/02/07 06:12:56;;;;;;;6.97;2.27;;;;;;;-145.69;53.57;52254.28;5134814;27;20748;-81
2024/02/07 06:15:22;;;;;;;6.13;2.17;;;;;;;-145.69;53.17;52240.41;5135270;27;20298;-81
2024/02/07 06:17:49;;;;;;;2.70;1.57;;;;;;;-145.69;53.45;52220.59;5135466;27;20231;-81
2024/02/07 06:20:15;;;;;;;5.30;2.00;;;;;;;-145.69;53.43;52238.44;5135460;27;20258;-81
2024/02/07 06:22:45;;;;;;;3.80;1.60;;;;;;;-145.69;53.43;52254.28;5135079;27;20555;-81
2024/02/07 06:25:13;;;;;;;4.00;1.90;;;;;;;-145.69;53.22;52240.41;5135179;27;20197;-81
2024/02/07 06:27:41;;;;;;;8.30;1.90;;;;;;;-145.69;53.22;52246.34;5135347;27;20288;-82
2024/02/07 06:30:08;;;;;;;6.23;1.80;;;;;;;-145.69;53.93;52272.09;5135067;27;20209;-82
2024/02/07 06:32:35;;;;;;;3.30;1.57;;;;;;;-145.69;53.53;52246.34;5134902;27;20643;-81
2024/02/07 06:35:02;;;;;;;4.10;2.23;;;;;;;-145.69;53.38;52254.28;5134938;27;20279;-81
2024/02/07 06:37:28;;;;;;;8.00;1.83;;;;;;;-145.69;53.29;52266.16;5134858;27;20224;-80
2024/02/07 06:39:55;;;;;;;5.53;2.17;;;;;;;-145.69;53.43;52278.03;5134896;27;20193;-80
2024/02/07 06:42:21;;;;;;;7.80;2.03;;;;;;;-145.69;53.23;52256.25;5134400;27;20655;-80
2024/02/07 06:44:49;;;;;;;8.17;1.97;;;;;;;-145.69;53.15;52252.28;5133475;27;20204;-80
2024/02/07 06:47:16;;;;;;;4.50;1.87;;;;;;;-145.69;53.34;52230.50;5134744;27;20204;-81
2024/02/07 06:49:42;;;;;;;6.30;1.63;;;;;;;-145.69;53.27;52266.16;5134468;27;20204;-80
2024/02/07 06:52:09;;;;;;;7.53;2.20;;;;;;;-145.69;53.90;52250.31;5134597;27;20236;-81
2024/02/07 06:54:35;;;;;;;3.80;1.83;;;;;;;-145.69;53.37;52289.91;5134700;27;20200;-81
2024/02/07 06:57:02;;;;;;;5.00;2.03;;;;;;;-145.69;53.80;52268.13;5134751;27;20601;-81
2024/02/07 06:59:29;;;;;;;8.00;2.40;;;;;;;-145.69;53.72;52270.13;5133959;27;20277;-81
2024/02/07 07:01:57;;;;;;;6.40;1.93;;;;;;;-145.69;53.34;52246.34;5134353;27;20200;-81
2024/02/07 07:04:23;;;;;;;4.57;2.10;;;;;;;-145.69;53.03;52230.50;5134977;27;20205;-81
2024/02/07 07:06:50;;;;;;;9.87;2.60;;;;;;;-145.69;53.60;52238.44;5134460;27;20209;-81
2024/02/07 07:09:19;;;;;;;7.07;2.57;;;;;;;-145.69;53.06;52252.28;5134208;27;20245;-81
2024/02/07 07:11:45;;;;;;;6.77;2.40;;;;;;;-145.69;53.58;52242.38;5133849;27;20197;-80
2024/02/07 07:14:12;;;;;;;9.43;2.70;;;;;;;-145.69;53.91;52240.41;5133059;27;20592;-81
2024/02/07 07:16:38;;;;;;;6.20;2.30;;;;;;;-145.69;53.77;52254.28;5133228;27;20192;-81
2024/02/07 07:19:06;;;;;;;6.40;2.30;;;;;;;-145.69;53.56;52230.50;5121898;27;20202;-81
2024/02/07 07:21:32;;;;;;;9.37;2.40;;;;;;;-145.69;53.94;52240.41;5113321;28;20201;-81
2024/02/07 07:23:59;;;;;;;7.37;2.13;;;;;;;-145.69;53.63;52202.78;5126827;27;20201;-81
2024/02/07 07:26:28;;;;;;;5.73;2.17;;;;;;;-145.69;53.98;52262.19;5134029;27;20661;-81
2024/02/07 07:28:57;;;;;;;10.50;2.50;;;;;;;-145.69;54.12;52246.34;5133990;27;20659;-81
2024/02/07 07:31:23;;;;;;;3.37;2.50;;;;;;;-145.69;53.75;52252.28;5133655;27;20217;-81
2024/02/07 07:33:50;;;;;;;5.23;2.20;;;;;;;-145.69;53.32;52258.22;5133276;27;20197;-80
2024/02/07 07:36:18;;;;;;;7.87;2.23;;;;;;;-145.69;53.34;52210.72;5133261;27;20189;-81
2024/02/07 07:38:45;;;;;;;6.80;2.60;;;;;;;-145.69;53.17;52274.06;5133612;27;20319;-81
2024/02/07 07:41:17;;;;;;;4.27;2.33;;;;;;;-145.69;53.22;52270.13;5133848;27;20192;-80
2024/02/07 07:43:43;;;;;;;6.50;2.20;;;;;;;-145.69;53.29;52264.16;5133701;27;20191;-81
2024/02/07 07:46:14;;;;;;;2.97;2.00;;;;;;;-145.69;52.78;52234.47;5133749;27;20201;-80
2024/02/07 07:48:41;;;;;;;6.90;2.03;;;;;;;-145.69;52.48;52228.53;5133629;27;20204;-81
2024/02/07 07:51:11;;;;;;;5.53;2.20;;;;;;;-145.69;53.11;52256.25;5133504;27;20237;-81
2024/02/07 07:53:39;;;;;;;7.87;2.80;;;;;;;-145.69;52.58;52234.47;5133857;27;20205;-80
2024/02/07 07:56:07;;;;;;;4.80;2.30;;;;;;;-145.69;52.70;52242.38;5133631;27;20204;-81
2024/02/07 07:58:37;;;;;;;7.63;2.93;;;;;;;-145.69;53.55;52254.28;5133352;27;20225;-80
2024/02/07 08:01:04;;;;;;;5.93;2.20;;;;;;;-145.69;53.48;52240.41;5133372;27;20201;-81
2024/02/07 08:03:31;;;;;;;6.47;2.20;;;;;;;-145.69;53.06;52262.19;5133515;27;20204;-80
2024/02/07 08:05:58;;;;;;;5.73;2.00;;;;;;;-145.69;53.24;52274.06;5133670;28;20567;-81
2024/02/07 08:08:25;;;;;;;3.67;2.20;;;;;;;-145.69;53.00;52248.34;5133745;27;20201;-81
2024/02/07 08:10:52;;;;;;;4.87;1.90;;;;;;;-145.69;52.78;52274.06;5133029;28;20585;-81
2024/02/07 08:13:21;;;;;;;6.90;2.07;;;;;;;-145.69;52.29;52305.75;5132968;28;20254;-81
2024/02/07 08:15:47;;;;;;;5.30;2.00;;;;;;;-145.69;52.59;52226.53;5133509;27;20219;-81
2024/02/07 08:18:13;;;;;;;4.27;1.80;;;;;;;-145.69;52.36;52244.38;5133300;28;20683;-81
2024/02/07 08:20:42;;;;;;;4.27;1.70;;;;;;;-145.69;51.92;52210.72;5133350;27;20643;-81
2024/02/07 08:23:08;;;;;;;4.57;1.80;;;;;;;-145.69;52.67;52264.16;5132936;28;20799;-81
2024/02/07 08:25:35;;;;;;;9.83;2.60;;;;;;;-145.69;52.18;52250.31;5133444;27;20200;-81
2024/02/07 08:28:03;;;;;;;6.40;2.30;;;;;;;-145.69;52.39;52274.06;5137213;27;20204;-80
2024/02/07 08:30:29;;;;;;;4.53;1.90;;;;;;;-145.69;51.98;52226.53;5137390;27;20200;-81
2024/02/07 08:32:56;;;;;;;8.43;1.90;;;;;;;-145.69;52.41;52246.34;5137450;27;20204;-81
2024/02/07 08:35:22;;;;;;;9.10;2.70;;;;;;;-145.69;52.87;52214.66;5137067;27;20200;-81
2024/02/07 08:37:49;;;;;;;6.70;1.90;;;;;;;-145.69;51.95;52256.25;5137115;27;20227;-80
2024/02/07 08:40:16;;;;;;;9.07;2.00;;;;;;;-145.69;52.29;52206.75;5137181;27;20200;-81
2024/02/07 08:42:44;;;;;;;3.73;2.07;;;;;;;-145.69;52.09;52240.41;5136831;27;20532;-81
2024/02/07 08:45:13;;;;;;;5.43;2.00;;;;;;;-145.69;51.99;52260.22;5137052;27;20658;-81
2024/02/07 08:47:39;;;;;;;8.87;2.03;;;;;;;-145.69;51.53;52234.47;5136661;27;20686;-80
2024/02/07 08:50:06;;;;;;;5.23;2.27;;;;;;;-145.69;51.74;52252.28;5137212;27;20207;-82
2024/02/07 08:52:33;;;;;;;6.57;2.30;;;;;;;-145.69;52.14;52242.38;5136996;27;20225;-81
2024/02/07 08:54:59;;;;;;;3.73;2.00;;;;;;;-145.69;51.61;52254.28;5136750;27;20201;-81
2024/02/07 08:57:27;;;;;;;4.40;2.10;;;;;;;-145.69;51.53;52238.44;5137084;27;20246;-82
2024/02/07 08:59:54;;;;;;;4.93;2.00;;;;;;;-145.69;51.90;52248.34;5136831;27;20189;-82
2024/02/07 09:02:22;;;;;;;2.63;1.47;;;;;;;-145.69;51.53;52218.63;5136771;27;20200;-81
2024/02/07 09:04:48;;;;;;;5.53;1.90;;;;;;;-145.69;51.30;52232.50;5136494;27;20283;-82
2024/02/07 09:07:15;;;;;;;4.37;1.90;;;;;;;-145.69;51.43;52276.06;5136847;27;20640;-81
2024/02/07 09:09:41;;;;;;;5.23;1.80;;;;;;;-145.69;51.76;52200.81;5136845;27;20192;-82
2024/02/07 09:12:08;;;;;;;5.03;2.10;;;;;;;-145.69;52.40;52222.59;5136474;27;20197;-80
2024/02/07 09:14:35;;;;;;;6.77;1.80;;;;;;;-145.69;52.34;52226.53;5135718;27;20204;-81
2024/02/07 09:17:02;;;;;;;5.07;2.47;;;;;;;-145.69;52.79;52230.50;5136661;27;20197;-81
2024/02/07 09:19:30;;;;;;;6.40;1.73;;;;;;;-145.69;52.01;52196.84;5136639;27;20228;-80
2024/02/07 09:21:58;;;;;;;3.70;2.00;;;;;;;-145.69;52.24;52222.59;5136338;27;20212;-81
2024/02/07 09:24:27;;;;;;;5.43;2.40;;;;;;;-145.69;52.01;52230.50;5136687;27;20196;-80
2024/02/07 09:26:58;;;;;;;4.07;1.70;;;;;;;-145.69;52.33;52208.72;5129536;27;20193;-81
2024/02/07 09:29:25;;;;;;;5.30;1.77;;;;;;;-145.69;52.21;52214.66;5115995;28;20209;-81
2024/02/07 09:31:51;;;;;;;4.33;1.80;;;;;;;-145.69;51.58;52214.66;5115811;28;20200;-82
2024/02/07 09:34:18;;;;;;;6.13;2.20;;;;;;;-145.69;51.62;52248.34;5115692;28;20206;-81
2024/02/07 09:36:46;;;;;;;4.37;2.60;;;;;;;-145.69;51.58;52200.81;5115985;27;20211;-81
2024/02/07 09:39:12;;;;;;;11.07;1.90;;;;;;;-145.69;51.28;52198.81;5134832;27;20216;-82
2024/02/07 09:41:41;;;;;;;5.97;2.27;;;;;;;-145.69;51.58;52236.44;5136201;27;20201;-81
2024/02/07 09:44:12;;;;;;;4.20;1.73;;;;;;;-145.69;51.23;52230.50;5135635;27;20214;-81
2024/02/07 09:46:43;;;;;;;5.67;1.97;;;;;;;-145.69;51.00;52216.66;5135848;27;20564;-80
2024/02/07 09:49:12;;;;;;;3.70;1.90;;;;;;;-145.69;51.04;52250.31;5135716;27;20201;-80
2024/02/07 09:51:40;;;;;;;4.93;2.10;;;;;;;-145.69;50.73;52222.59;5135779;27;20236;-81
2024/02/07 09:54:13;;;;;;;6.00;2.10;;;;;;;-145.69;50.58;52210.72;5135910;27;20647;-81
2024/02/07 09:56:44;;;;;;;3.77;2.47;;;;;;;-145.69;50.46;52214.66;5135869;27;20199;-81
2024/02/07 09:59:16;;;;;;;4.00;1.83;;;;;;;-145.69;50.27;52242.38;5135857;27;20232;-80
2024/02/07 10:01:46;;;;;;;5.87;2.03;;;;;;;-145.69;50.26;52220.59;5135654;27;20253;-80
2024/02/07 10:04:18;;;;;;;5.33;1.80;;;;;;;-145.69;49.71;52186.94;5135624;27;20282;-80
2024/02/07 10:06:50;;;;;;;4.93;2.13;;;;;;;-145.69;50.42;52206.75;5135754;27;20200;-81
2024/02/07 10:09:18;;;;;;;4.70;1.47;;;;;;;-145.69;50.46;52186.94;5135223;27;20204;-81
2024/02/07 10:11:47;;;;;;;6.00;1.87;;;;;;;-145.69;51.05;52240.41;5133614;27;20197;-80
2024/02/07 10:14:17;;;;;;;4.47;1.83;;;;;;;-145.69;51.27;52206.75;5125537;27;20229;-81
2024/02/07 10:16:44;;;;;;;5.43;1.87;;;;;;;-145.69;52.08;52234.47;5114325;27;20208;-81
2024/02/07 10:19:11;;;;;;;6.10;1.90;;;;;;;-145.69;52.57;52190.91;5114782;28;20237;-80
2024/02/07 10:21:38;;;;;;;4.33;1.60;;;;;;;-145.69;53.12;52208.72;5131814;27;20283;-82
2024/02/07 10:24:08;;;;;;;5.97;1.70;;;;;;;-145.69;53.34;52206.75;5135179;27;20670;-82
2024/02/07 10:26:36;;;;;;;3.67;1.77;;;;;;;-145.69;53.47;52234.47;5135291;27;20196;-80
2024/02/07 10:29:05;;;;;;;3.97;1.70;;;;;;;-145.69;53.69;52230.50;5135095;27;20204;-80
2024/02/07 10:31:32;;;;;;;3.80;1.83;;;;;;;-145.69;54.92;52196.84;5134818;27;20196;-81
2024/02/07 10:33:58;;;;;;;4.93;2.00;;;;;;;-145.69;54.00;52214.66;5134459;27;20557;-80
2024/02/07 10:36:25;;;;;;;4.27;1.47;;;;;;;-145.69;54.83;52206.75;5135122;27;20208;-81
2024/02/07 10:38:53;;;;;;;4.97;1.90;;;;;;;-145.69;54.92;52226.53;5134846;27;20228;-80
2024/02/07 10:41:20;;;;;;;3.80;1.50;;;;;;;-145.69;54.73;52218.63;5136748;27;20236;-81
2024/02/07 10:43:48;;;;;;;4.77;1.93;;;;;;;-145.69;55.02;52184.97;5134554;27;20193;-81
2024/02/07 10:46:18;;;;;;;4.93;2.10;;;;;;;-145.69;54.37;52200.81;5134737;27;20196;-82
2024/02/07 10:48:45;;;;;;;5.70;1.97;;;;;;;-145.69;54.38;52230.50;5135737;27;20207;-81
2024/02/07 10:51:11;;;;;;;7.67;2.20;;;;;;;-145.69;53.99;52238.44;5134482;27;20229;-82
2024/02/07 10:53:38;;;;;;;7.67;1.80;;;;;;;-145.69;54.10;52226.53;5135094;27;20200;-81
2024/02/07 10:56:06;;;;;;;4.23;1.70;;;;;;;-145.69;54.74;52252.28;5133695;27;20205;-82
2024/02/07 10:58:36;;;;;;;4.10;2.00;;;;;;;-145.69;55.19;52246.34;5134614;27;20227;-82
2024/02/07 11:01:05;;;;;;;6.00;2.23;;;;;;;-145.69;55.96;52206.75;5134919;27;20193;-81
2024/02/07 11:03:35;;;;;;;7.97;2.50;;;;;;;-145.69;56.31;52228.53;5134376;27;20204;-82
2024/02/07 11:06:03;;;;;;;3.63;1.90;;;;;;;-145.69;56.72;52232.50;5134537;27;20269;-82
2024/02/07 11:08:30;;;;;;;5.37;1.80;;;;;;;-145.69;56.37;52220.59;5133959;27;20193;-82
2024/02/07 11:10:57;;;;;;;6.03;2.10;;;;;;;-145.69;56.43;52244.38;5133924;27;20207;-82
2024/02/07 11:13:25;;;;;;;4.97;2.07;;;;;;;-145.69;56.67;52222.59;5133350;27;20212;-81
2024/02/07 11:15:51;;;;;;;18.70;4.27;;;;;;;-145.69;56.64;52238.44;5134224;27;20700;-81
2024/02/07 11:18:19;;;;;;;35.13;12.93;;;;;;;-145.69;57.20;52214.66;5129816;27;20217;-81
2024/02/07 11:20:46;;;;;;;9.00;2.07;;;;;;;-145.69;57.46;52283.97;5113525;28;20202;-82
2024/02/07 11:23:17;;;;;;;6.17;1.97;;;;;;;-145.69;56.89;52248.34;5113486;28;20201;-81
2024/02/07 11:25:46;;;;;;;8.30;2.37;;;;;;;-145.69;56.54;52218.63;5113569;28;20666;-81
2024/02/07 11:28:13;;;;;;;6.97;2.20;;;;;;;-145.69;56.91;52244.38;5112509;28;20202;-81
2024/02/07 11:30:40;;;;;;;5.73;2.13;;;;;;;-145.69;56.50;52188.91;5132852;27;20201;-82
2024/02/07 11:33:09;;;;;;;4.20;2.00;;;;;;;-145.69;55.60;52230.50;5133522;27;20197;-82
2024/02/07 11:35:37;;;;;;;32.93;11.77;;;;;;;-145.69;56.12;52214.66;5133881;27;20204;-82
2024/02/07 11:38:04;;;;;;;5.37;2.40;;;;;;;-145.69;55.37;52222.59;5133605;27;20690;-81
2024/02/07 11:40:38;;;;;;;3.57;2.10;;;;;;;-145.69;54.09;52250.31;5133940;27;20204;-83
2024/02/07 11:43:05;;;;;;;4.17;1.63;;;;;;;-145.69;54.40;52228.53;5133456;27;20201;-82
2024/02/07 11:45:36;;;;;;;4.67;2.00;;;;;;;-145.69;54.31;52240.41;5131907;27;20279;-83
2024/02/07 11:48:18;;;;;;;4.57;1.73;;;;;;;-145.69;53.91;52210.72;5113298;28;20284;-81
2024/02/07 11:50:46;;;;;;;4.40;2.00;;;;;;;-145.69;54.18;52214.66;5112814;28;20258;-82
2024/02/07 11:53:19;;;;;;;7.40;1.77;;;;;;;-145.69;54.22;52208.72;5113097;28;20201;-82
2024/02/07 11:55:47;;;;;;;5.37;2.30;;;;;;;-145.69;54.36;52258.22;5113289;28;20197;-81
2024/02/07 11:58:16;;;;;;;3.17;1.80;;;;;;;-145.69;53.97;52260.22;5112672;28;20232;-82
2024/02/07 12:00:43;;;;;;;6.77;2.30;;;;;;;-145.69;54.03;52238.44;5112483;28;20224;-82
2024/02/07 12:03:19;;;;;;;3.80;1.70;;;;;;;-145.69;53.93;52206.75;5113538;28;20205;-81
2024/02/07 12:05:47;;;;;;;3.30;1.77;;;;;;;-145.69;53.75;52190.91;5113038;28;20197;-82
2024/02/07 12:08:15;;;;;;;4.90;2.00;;;;;;;-145.69;53.22;52204.75;5113175;28;20201;-82
2024/02/07 12:10:44;;;;;;;3.63;1.87;;;;;;;-145.69;53.70;52232.50;5112778;28;20659;-82
2024/02/07 12:13:15;;;;;;;4.83;2.00;;;;;;;-145.69;53.33;52238.44;5112892;28;20295;-82
2024/02/07 12:15:42;;;;;;;7.00;2.15;;;;;;;-145.69;52.40;52198.81;5133071;27;20647;-83
2024/02/07 12:18:10;;;;;;;5.18;2.00;;;;;;;-145.69;52.69;52218.63;5133086;27;20219;-83
2024/02/07 12:20:39;;;;;;;5.35;1.95;;;;;;;-145.69;51.51;52236.44;5122634;27;20201;-82
2024/02/07 12:23:07;;;;;;;7.73;1.73;;;;;;;-145.69;51.40;52222.59;5112436;28;20244;-82
2024/02/07 12:25:36;;;;;;;6.55;1.60;;;;;;;-145.69;51.02;52214.66;5112656;28;20999;-82